createdAt,value
2023-04-05T00:02:24.772Z,1.17
2023-04-05T00:05:30.679Z,1.17
2023-04-05T00:08:33.039Z,1.21
2023-04-05T00:11:35.688Z,1.31
2023-04-05T00:14:37.975Z,1.23
2023-04-05T00:17:41.180Z,1.16
2023-04-05T00:20:43.952Z,1.13
2023-04-05T00:23:46.573Z,1.12
2023-04-05T00:26:48.913Z,1.08
2023-04-05T00:29:51.520Z,1.10
2023-04-05T00:32:54.132Z,1.14
2023-04-05T00:35:56.979Z,1.14
2023-04-05T00:38:59.647Z,1.21
2023-04-05T00:42:03.516Z,1.18
2023-04-05T00:45:06.114Z,1.19
2023-04-05T00:48:08.840Z,1.10
2023-04-05T00:51:11.736Z,1.06
2023-04-05T00:54:15.181Z,1.09
2023-04-05T00:57:18.330Z,1.01
2023-04-05T01:00:21.643Z,1.02
2023-04-05T01:03:27.640Z,1.04
2023-04-05T01:06:41.667Z,1.03
2023-04-05T01:10:07.344Z,1.02
2023-04-05T01:13:10.135Z,0.99
2023-04-05T01:16:12.606Z,0.90
2023-04-05T01:19:16.421Z,0.97
2023-04-05T01:22:38.197Z,0.92
2023-04-05T01:25:58.901Z,0.89
2023-04-05T01:29:17.778Z,0.82
2023-04-05T01:32:38.813Z,0.72
2023-04-05T01:35:50.988Z,0.75
2023-04-05T01:38:54.115Z,0.70
2023-04-05T01:42:01.304Z,0.63
2023-04-05T01:45:04.334Z,0.61
2023-04-05T01:48:07.630Z,0.53
2023-04-05T01:51:10.404Z,0.51
2023-04-05T01:54:13.098Z,0.53
2023-04-05T01:57:15.730Z,0.46
2023-04-05T02:00:18.331Z,0.44
2023-04-05T02:03:21.270Z,0.45
2023-04-05T02:06:23.706Z,0.34
2023-04-05T02:09:26.421Z,0.36
2023-04-05T02:12:28.861Z,0.31
2023-04-05T02:15:34.127Z,0.30
2023-04-05T02:18:38.736Z,0.27
2023-04-05T02:21:41.857Z,0.30
2023-04-05T02:24:44.517Z,0.20
2023-04-05T02:27:47.835Z,0.13
2023-04-05T02:30:50.459Z,0.13
2023-04-05T02:33:54.238Z,0.07
2023-04-05T02:36:56.771Z,0.16
2023-04-05T02:39:59.694Z,0.10
2023-04-05T02:43:02.447Z,0.01
2023-04-05T02:46:05.314Z,-0.10
2023-04-05T02:49:07.869Z,-0.06
2023-04-05T02:52:11.123Z,-0.14
2023-04-05T02:55:13.882Z,-0.10
2023-04-05T02:58:16.840Z,-0.22
2023-04-05T03:01:20.584Z,-0.25
2023-04-05T03:04:26.715Z,-0.30
2023-04-05T03:07:30.535Z,-0.36
2023-04-05T03:10:36.302Z,-0.41
2023-04-05T03:13:39.401Z,-0.46
2023-04-05T03:16:42.910Z,-0.44
2023-04-05T03:19:46.063Z,-0.48
2023-04-05T03:22:49.357Z,-0.48
2023-04-05T03:25:53.418Z,-0.53
2023-04-05T03:28:57.046Z,-0.55
2023-04-05T03:31:59.846Z,-0.60
2023-04-05T03:35:02.810Z,-0.58
2023-04-05T03:38:05.910Z,-0.64
2023-04-05T03:41:09.368Z,-0.66
2023-04-05T03:44:11.840Z,-0.65
2023-04-05T03:47:14.573Z,-0.66
2023-04-05T03:50:18.547Z,-0.67
2023-04-05T03:53:21.233Z,-0.68
2023-04-05T03:56:23.915Z,-0.72
2023-04-05T03:59:26.865Z,-0.70
2023-04-05T04:02:29.680Z,-0.74
2023-04-05T04:05:39.020Z,-0.73
2023-04-05T04:08:42.084Z,-0.71
2023-04-05T04:11:45.073Z,-0.74
2023-04-05T04:14:49.204Z,-0.79
2023-04-05T04:17:52.286Z,-0.79
2023-04-05T04:20:56.680Z,-0.77
2023-04-05T04:24:01.948Z,-0.69
2023-04-05T04:27:11.877Z,-0.64
2023-04-05T04:30:15.738Z,-0.61
2023-04-05T04:33:20.129Z,-0.65
2023-04-05T04:36:36.220Z,-0.63
2023-04-05T04:39:39.768Z,-0.59
2023-04-05T04:42:46.608Z,-0.58
2023-04-05T04:45:50.052Z,-0.52
2023-04-05T04:48:53.771Z,-0.44
2023-04-05T04:51:59.636Z,-0.47
2023-04-05T04:55:05.782Z,-0.44
2023-04-05T04:58:12.881Z,-0.39
2023-04-05T05:01:16.592Z,-0.36
2023-04-05T05:04:19.232Z,-0.35
2023-04-05T05:07:22.510Z,-0.29
2023-04-05T05:10:24.974Z,-0.33
2023-04-05T05:13:28.093Z,-0.19
2023-04-05T05:16:30.581Z,-0.13
2023-04-05T05:19:33.336Z,0.02
2023-04-05T05:22:36.306Z,0.06
2023-04-05T05:25:39.016Z,0.23
2023-04-05T05:28:41.392Z,0.29
2023-04-05T05:31:44.090Z,0.41
2023-04-05T05:34:48.645Z,0.50
2023-04-05T05:37:51.349Z,0.65
2023-04-05T05:40:57.701Z,0.95
2023-04-05T05:44:00.398Z,1.10
2023-04-05T05:47:03.279Z,1.15
2023-04-05T05:50:07.131Z,1.26
2023-04-05T05:53:09.694Z,1.43
2023-04-05T05:56:12.426Z,1.61
2023-04-05T05:59:14.996Z,1.64
2023-04-05T06:02:18.038Z,1.81
2023-04-05T06:05:20.917Z,1.82
2023-04-05T06:08:24.193Z,1.87
2023-04-05T06:11:27.069Z,2.11
2023-04-05T06:14:32.027Z,2.34
2023-04-05T06:17:39.789Z,2.55
2023-04-05T06:20:44.677Z,2.53
2023-04-05T06:23:47.663Z,2.63
2023-04-05T06:26:50.985Z,2.58
2023-04-05T06:29:55.475Z,2.64
2023-04-05T06:32:57.857Z,2.64
2023-04-05T06:36:01.289Z,2.82
2023-04-05T06:39:03.737Z,2.84
2023-04-05T06:42:06.395Z,2.98
2023-04-05T06:45:13.007Z,2.93
2023-04-05T06:48:15.668Z,2.94
2023-04-05T06:51:18.402Z,3.05
2023-04-05T06:54:23.217Z,3.13
2023-04-05T06:57:25.552Z,3.27
2023-04-05T07:00:28.864Z,3.38
2023-04-05T07:03:32.642Z,3.48
2023-04-05T07:06:39.046Z,3.34
2023-04-05T07:09:41.421Z,3.42
2023-04-05T07:12:45.847Z,3.42
2023-04-05T07:15:48.381Z,3.67
2023-04-05T07:18:51.289Z,3.75
2023-04-05T07:21:54.136Z,3.77
2023-04-05T07:24:57.622Z,3.82
2023-04-05T07:28:00.432Z,3.81
2023-04-05T07:31:04.009Z,4.03
2023-04-05T07:34:07.042Z,4.00
2023-04-05T07:37:09.877Z,4.01
2023-04-05T07:40:12.572Z,3.95
2023-04-05T07:43:15.851Z,4.08
2023-04-05T07:46:18.397Z,4.24
2023-04-05T07:49:24.509Z,4.22
2023-04-05T07:52:26.988Z,4.35
2023-04-05T07:55:29.798Z,4.74
2023-04-05T07:58:32.592Z,4.42
2023-04-05T08:01:35.395Z,4.50
2023-04-05T08:04:38.554Z,4.64
2023-04-05T08:07:41.601Z,4.85
2023-04-05T08:10:47.169Z,4.96
2023-04-05T08:14:07.855Z,4.95
2023-04-05T08:17:10.660Z,4.72
2023-04-05T08:20:13.083Z,5.02
2023-04-05T08:23:16.841Z,4.87
2023-04-05T08:26:19.222Z,5.06
2023-04-05T08:29:23.085Z,5.30
2023-04-05T08:32:25.610Z,5.27
2023-04-05T08:35:28.393Z,5.35
2023-04-05T08:38:31.220Z,5.37
2023-04-05T08:41:40.973Z,5.38
2023-04-05T08:44:44.284Z,5.48
2023-04-05T08:47:49.591Z,5.74
2023-04-05T08:50:52.643Z,5.68
2023-04-05T08:53:56.220Z,5.71
2023-04-05T08:56:59.807Z,6.00
2023-04-05T09:00:03.230Z,6.25
2023-04-05T09:03:06.377Z,6.13
2023-04-05T09:06:12.011Z,6.35
2023-04-05T09:09:15.128Z,6.30
2023-04-05T09:12:20.551Z,6.55
2023-04-05T09:15:24.502Z,6.80
2023-04-05T09:18:27.634Z,6.79
2023-04-05T09:21:30.168Z,6.86
2023-04-05T09:24:36.762Z,6.93
2023-04-05T09:27:54.286Z,7.00
2023-04-05T09:30:57.033Z,7.17
2023-04-05T09:34:01.596Z,6.93
2023-04-05T09:37:16.251Z,7.25
2023-04-05T09:40:18.671Z,7.34
2023-04-05T09:43:38.211Z,7.07
2023-04-05T09:46:41.794Z,7.35
2023-04-05T09:49:44.845Z,7.80
2023-04-05T09:52:48.247Z,8.00
2023-04-05T09:55:51.750Z,7.98
2023-04-05T09:58:58.467Z,7.97
2023-04-05T10:02:01.450Z,7.57
2023-04-05T10:05:08.382Z,7.76
2023-04-05T10:08:10.820Z,7.89
2023-04-05T10:11:14.215Z,7.61
2023-04-05T10:14:16.689Z,7.26
2023-04-05T10:17:19.393Z,7.36
2023-04-05T10:20:22.734Z,7.66
2023-04-05T10:23:27.721Z,7.98
2023-04-05T10:26:40.744Z,8.10
2023-04-05T10:29:49.399Z,8.51
2023-04-05T10:32:57.849Z,8.99
2023-04-05T10:36:12.956Z,9.25
2023-04-05T10:39:21.158Z,8.63
2023-04-05T10:42:27.521Z,8.21
2023-04-05T10:45:32.659Z,8.34
2023-04-05T10:48:46.215Z,8.12
2023-04-05T10:51:49.047Z,8.32
2023-04-05T10:54:52.733Z,8.55
2023-04-05T10:57:55.829Z,8.23
2023-04-05T11:00:59.325Z,8.15
2023-04-05T11:04:14.722Z,8.28
2023-04-05T11:07:18.052Z,8.29
2023-04-05T11:10:20.809Z,8.14
2023-04-05T11:13:43.405Z,7.88
2023-04-05T11:16:50.735Z,8.07
2023-04-05T11:20:02.682Z,8.28
2023-04-05T11:23:05.181Z,8.46
2023-04-05T11:26:07.744Z,8.10
2023-04-05T11:29:10.916Z,8.45
2023-04-05T11:32:13.715Z,8.50
2023-04-05T11:35:25.349Z,8.45
2023-04-05T11:38:27.946Z,8.83
2023-04-05T11:41:33.452Z,8.92
2023-04-05T11:44:42.072Z,9.16
2023-04-05T11:47:44.449Z,9.09
2023-04-05T11:50:47.879Z,8.91
2023-04-05T11:53:50.409Z,9.14
2023-04-05T11:56:53.141Z,9.12
2023-04-05T11:59:55.734Z,9.27
2023-04-05T12:02:58.517Z,9.27
2023-04-05T12:06:02.474Z,9.44
2023-04-05T12:09:07.017Z,9.46
2023-04-05T12:12:16.518Z,9.44
2023-04-05T12:15:19.285Z,9.11
2023-04-05T12:18:22.068Z,9.14
2023-04-05T12:21:25.190Z,9.46
2023-04-05T12:24:28.001Z,9.54
2023-04-05T12:27:30.628Z,9.43
2023-04-05T12:30:36.707Z,9.74
2023-04-05T12:33:41.004Z,10.01
2023-04-05T12:36:44.491Z,9.92
2023-04-05T12:39:46.887Z,9.71
2023-04-05T12:42:50.549Z,9.66
2023-04-05T12:45:56.608Z,9.79
2023-04-05T12:48:59.578Z,9.96
2023-04-05T12:52:03.082Z,10.04
2023-04-05T12:55:15.355Z,10.23
2023-04-05T12:58:18.451Z,10.40
2023-04-05T13:01:21.172Z,10.21
2023-04-05T13:04:25.900Z,10.62
2023-04-05T13:07:28.544Z,10.81
2023-04-05T13:10:31.131Z,11.14
2023-04-05T13:13:34.707Z,11.43
2023-04-05T13:16:37.250Z,11.35
2023-04-05T13:19:39.998Z,11.12
2023-04-05T13:22:43.076Z,10.89
2023-04-05T13:25:45.782Z,11.18
2023-04-05T13:28:48.221Z,11.13
2023-04-05T13:31:51.153Z,11.22
2023-04-05T13:34:53.594Z,11.35
2023-04-05T13:37:56.557Z,11.14
2023-04-05T13:40:59.038Z,11.27
2023-04-05T13:44:03.324Z,11.53
2023-04-05T13:47:06.890Z,11.89
2023-04-05T13:50:09.891Z,11.58
2023-04-05T13:53:12.408Z,11.49
2023-04-05T13:56:15.038Z,11.53
2023-04-05T13:59:19.482Z,11.65
2023-04-05T14:02:26.028Z,11.90
2023-04-05T14:05:28.829Z,11.55
2023-04-05T14:08:31.242Z,11.76
2023-04-05T14:11:33.979Z,11.90
2023-04-05T14:14:36.777Z,11.60
2023-04-05T14:17:39.486Z,11.27
2023-04-05T14:20:42.327Z,11.52
2023-04-05T14:23:45.841Z,11.85
2023-04-05T14:26:50.176Z,12.64
2023-04-05T14:29:56.971Z,12.64
2023-04-05T14:32:59.569Z,13.02
2023-04-05T14:36:02.490Z,13.57
2023-04-05T14:39:05.023Z,14.21
2023-04-05T14:42:07.979Z,14.77
2023-04-05T14:45:10.764Z,15.25
2023-04-05T14:48:13.546Z,16.08
2023-04-05T14:51:16.046Z,16.76
2023-04-05T14:54:18.952Z,16.78
2023-04-05T14:57:21.481Z,16.91
2023-04-05T15:00:24.602Z,17.46
2023-04-05T15:03:27.192Z,17.70
2023-04-05T15:06:30.167Z,18.07
2023-04-05T15:09:32.955Z,17.99
2023-04-05T15:12:35.931Z,18.20
2023-04-05T15:15:38.469Z,18.13
2023-04-05T15:18:44.060Z,18.12
2023-04-05T15:21:46.608Z,18.34
2023-04-05T15:24:49.445Z,17.54
2023-04-05T15:27:52.545Z,16.50
2023-04-05T15:30:55.355Z,16.46
2023-04-05T15:33:58.206Z,17.29
2023-04-05T15:37:01.423Z,17.56
2023-04-05T15:40:04.200Z,17.80
2023-04-05T15:43:07.679Z,17.52
2023-04-05T15:46:10.134Z,17.58
2023-04-05T15:49:14.649Z,17.91
2023-04-05T15:52:18.617Z,17.77
2023-04-05T15:55:21.325Z,18.10
2023-04-05T15:58:23.854Z,17.94
2023-04-05T16:01:26.627Z,18.64
2023-04-05T16:04:30.366Z,17.83
2023-04-05T16:07:33.033Z,17.25
2023-04-05T16:10:37.045Z,16.74
2023-04-05T16:13:39.812Z,16.56
2023-04-05T16:16:52.834Z,14.91
2023-04-05T16:19:57.301Z,14.31
2023-04-05T16:23:00.423Z,14.26
2023-04-05T16:26:02.953Z,14.52
2023-04-05T16:29:06.439Z,14.79
2023-04-05T16:32:09.404Z,14.66
2023-04-05T16:35:12.439Z,14.38
2023-04-05T16:38:14.965Z,13.78
2023-04-05T16:41:17.695Z,13.15
2023-04-05T16:44:20.532Z,11.96
2023-04-05T16:47:23.340Z,10.88
2023-04-05T16:50:27.318Z,10.18
2023-04-05T16:53:30.258Z,9.56
2023-04-05T16:56:32.830Z,9.15
2023-04-05T16:59:36.004Z,8.90
2023-04-05T17:02:38.537Z,8.55
2023-04-05T17:05:41.430Z,8.41
2023-04-05T17:08:43.888Z,8.08
2023-04-05T17:11:46.942Z,7.82
2023-04-05T17:14:49.494Z,7.61
2023-04-05T17:17:52.300Z,7.39
2023-04-05T17:20:54.677Z,7.12
2023-04-05T17:23:57.367Z,6.95
2023-04-05T17:26:59.755Z,6.85
2023-04-05T17:30:02.599Z,6.60
2023-04-05T17:33:06.630Z,6.41
2023-04-05T17:36:09.610Z,6.31
2023-04-05T17:39:12.347Z,6.12
2023-04-05T17:42:15.090Z,5.96
2023-04-05T17:45:17.614Z,5.77
2023-04-05T17:48:20.836Z,5.59
2023-04-05T17:51:23.364Z,5.44
2023-04-05T17:54:26.397Z,5.34
2023-04-05T17:57:28.844Z,5.26
2023-04-05T18:00:31.848Z,5.19
2023-04-05T18:03:34.782Z,5.10
2023-04-05T18:06:37.311Z,5.00
2023-04-05T18:09:42.355Z,4.93
2023-04-05T18:12:44.999Z,4.87
2023-04-05T18:15:51.849Z,4.81
2023-04-05T18:18:54.321Z,4.74
2023-04-05T18:22:00.313Z,4.69
2023-04-05T18:25:02.893Z,4.62
2023-04-05T18:28:19.291Z,4.53
2023-04-05T18:31:24.665Z,4.49
2023-04-05T18:34:27.463Z,4.50
2023-04-05T18:37:29.964Z,4.39
2023-04-05T18:40:34.392Z,4.30
2023-04-05T18:43:36.833Z,4.26
2023-04-05T18:46:39.614Z,4.25
2023-04-05T18:49:42.044Z,4.21
2023-04-05T18:52:44.689Z,4.14
2023-04-05T18:55:47.175Z,4.08
2023-04-05T18:58:51.215Z,4.02
2023-04-05T19:01:54.010Z,3.98
2023-04-05T19:05:00.139Z,4.24
2023-04-05T19:08:02.625Z,4.48
2023-04-05T19:11:06.456Z,4.65
2023-04-05T19:14:08.966Z,4.63
2023-04-05T19:17:11.696Z,4.53
2023-04-05T19:20:14.135Z,4.37
2023-04-05T19:23:16.925Z,4.23
2023-04-05T19:26:21.823Z,4.07
2023-04-05T19:29:25.551Z,3.94
2023-04-05T19:32:28.106Z,3.79
2023-04-05T19:35:31.277Z,3.63
2023-04-05T19:38:33.882Z,3.50
2023-04-05T19:41:36.852Z,3.41
2023-04-05T19:44:48.304Z,3.43
2023-04-05T19:47:51.126Z,3.45
2023-04-05T19:50:56.681Z,3.50
2023-04-05T19:54:00.382Z,3.48
2023-04-05T19:57:02.898Z,3.46
2023-04-05T20:00:32.658Z,3.75
2023-04-05T20:03:37.168Z,3.91
2023-04-05T20:06:40.472Z,3.88
2023-04-05T20:09:44.021Z,3.92
2023-04-05T20:12:46.560Z,3.90
2023-04-05T20:15:52.715Z,3.96
2023-04-05T20:18:57.360Z,3.95
2023-04-05T20:22:00.731Z,3.96
2023-04-05T20:25:11.743Z,3.91
2023-04-05T20:28:35.501Z,3.67
2023-04-05T20:31:40.162Z,3.77
2023-04-05T20:34:44.197Z,3.62
2023-04-05T20:37:49.548Z,3.78
2023-04-05T20:40:52.562Z,3.86
2023-04-05T20:43:56.380Z,3.68
2023-04-05T20:46:59.659Z,3.65
2023-04-05T20:50:02.038Z,3.85
2023-04-05T20:53:06.187Z,3.68
2023-04-05T20:56:09.296Z,3.51
2023-04-05T20:59:12.515Z,3.41
2023-04-05T21:02:15.046Z,3.25
2023-04-05T21:05:17.802Z,3.18
2023-04-05T21:08:20.589Z,3.06
2023-04-05T21:11:23.386Z,2.93
2023-04-05T21:14:26.622Z,2.84
2023-04-05T21:17:29.700Z,2.72
2023-04-05T21:20:32.193Z,2.78
2023-04-05T21:23:34.821Z,2.84
2023-04-05T21:26:37.223Z,2.88
2023-04-05T21:29:40.058Z,2.73
2023-04-05T21:32:42.815Z,2.68
2023-04-05T21:35:45.579Z,2.52
2023-04-05T21:38:48.072Z,2.41
2023-04-05T21:41:50.890Z,2.48
2023-04-05T21:44:53.321Z,2.60
2023-04-05T21:47:56.198Z,2.46
2023-04-05T21:50:58.711Z,2.68
2023-04-05T21:54:01.425Z,2.85
2023-04-05T21:57:03.957Z,2.76
2023-04-05T22:00:10.991Z,2.60
2023-04-05T22:03:15.829Z,2.51
2023-04-05T22:06:18.543Z,2.36
2023-04-05T22:09:20.953Z,2.35
2023-04-05T22:12:23.758Z,2.33
2023-04-05T22:15:26.140Z,2.18
2023-04-05T22:18:29.135Z,2.10
2023-04-05T22:21:31.610Z,2.05
2023-04-05T22:24:34.357Z,1.97
2023-04-05T22:27:36.704Z,1.87
2023-04-05T22:33:45.046Z,1.71
2023-04-05T22:36:47.688Z,1.66
2023-04-05T22:39:50.130Z,1.61
2023-04-05T22:42:55.651Z,1.53
2023-04-05T22:45:58.046Z,1.63
2023-04-05T22:49:01.344Z,1.54
2023-04-05T22:52:10.400Z,1.47
2023-04-05T22:55:13.202Z,1.48
2023-04-05T22:58:16.737Z,1.44
2023-04-05T23:01:19.523Z,1.36
2023-04-05T23:04:22.016Z,1.28
2023-04-05T23:07:24.826Z,1.21
2023-04-05T23:10:27.341Z,1.19
2023-04-05T23:13:30.080Z,1.22
2023-04-05T23:16:32.522Z,1.15
2023-04-05T23:19:35.388Z,1.12
2023-04-05T23:22:37.821Z,1.10
2023-04-05T23:25:41.029Z,1.05
2023-04-05T23:28:43.457Z,1.00
2023-04-05T23:31:46.360Z,0.97
2023-04-05T23:34:48.782Z,0.93
2023-04-05T23:37:51.442Z,0.93
2023-04-05T23:40:53.801Z,0.91
2023-04-05T23:43:56.944Z,0.89
2023-04-05T23:46:59.619Z,0.89
2023-04-05T23:50:05.163Z,0.83
2023-04-05T23:53:07.654Z,0.82
2023-04-05T23:56:10.886Z,0.81
2023-04-05T23:59:13.371Z,0.81
